createdAt,value
2023-04-15T00:01:34.054Z,100742.31
2023-04-15T00:06:39.689Z,100744.72
2023-04-15T00:11:44.254Z,100758.72
2023-04-15T00:16:47.490Z,100767.31
2023-04-15T00:21:50.766Z,100769.84
2023-04-15T00:26:55.506Z,100776.69
2023-04-15T00:31:59.190Z,100777.28
2023-04-15T00:37:02.553Z,100789.28
2023-04-15T00:42:07.370Z,100792.56
2023-04-15T00:47:11.316Z,100804.81
2023-04-15T00:52:14.503Z,100801.34
2023-04-15T00:57:19.186Z,100815.25
2023-04-15T01:02:23.225Z,100817.75
2023-04-15T01:07:26.550Z,100822.88
2023-04-15T01:12:34.422Z,100802.28
2023-04-15T01:17:38.329Z,100829.28
2023-04-15T01:22:42.186Z,100834.47
2023-04-15T01:27:47.144Z,100837.00
2023-04-15T01:32:50.568Z,100837.72
2023-04-15T01:38:13.751Z,100847.09
2023-04-15T01:43:18.240Z,100856.69
2023-04-15T01:48:21.656Z,100859.25
2023-04-15T01:53:24.907Z,100861.59
2023-04-15T01:58:29.610Z,100862.38
2023-04-15T02:03:33.118Z,100869.22
2023-04-15T02:08:36.328Z,100871.66
2023-04-15T02:13:40.922Z,100888.25
2023-04-15T02:18:44.042Z,100888.13
2023-04-15T02:23:48.541Z,100901.16
2023-04-15T02:28:53.225Z,100910.59
2023-04-15T02:33:56.295Z,100916.56
2023-04-15T02:39:00.124Z,100914.81
2023-04-15T02:44:04.971Z,100927.84
2023-04-15T02:49:08.730Z,100938.50
2023-04-15T02:54:11.989Z,100945.69
2023-04-15T02:59:16.616Z,100948.59
2023-04-15T03:04:20.013Z,100948.84
2023-04-15T03:09:23.356Z,100960.38
2023-04-15T03:14:27.884Z,100963.47
2023-04-15T03:19:31.954Z,100964.69
2023-04-15T03:24:35.289Z,100975.63
2023-04-15T03:29:39.970Z,100983.13
2023-04-15T03:34:43.511Z,100982.81
2023-04-15T03:39:46.940Z,100985.94
2023-04-15T03:44:51.547Z,100989.97
2023-04-15T03:49:54.787Z,100961.34
2023-04-15T03:54:58.260Z,100993.56
2023-04-15T04:00:02.947Z,100985.31
2023-04-15T04:05:06.668Z,100987.44
2023-04-15T04:10:10.580Z,100993.16
2023-04-15T04:15:15.454Z,101003.09
2023-04-15T04:20:18.785Z,101000.81
2023-04-15T04:25:22.124Z,101006.41
2023-04-15T04:30:26.779Z,100994.44
2023-04-15T04:35:30.177Z,101007.63
2023-04-15T04:40:33.487Z,101004.25
2023-04-15T04:45:38.140Z,101007.00
2023-04-15T04:50:41.489Z,101020.41
2023-04-15T04:55:44.852Z,101015.44
2023-04-15T05:00:49.568Z,101008.66
2023-04-15T05:05:53.027Z,101019.47
2023-04-15T05:10:56.452Z,101023.13
2023-04-15T05:16:01.215Z,101028.56
2023-04-15T05:21:04.476Z,101021.66
2023-04-15T05:26:08.025Z,101018.22
2023-04-15T05:31:12.735Z,101027.91
2023-04-15T05:36:15.912Z,101033.25
2023-04-15T05:41:19.811Z,101032.34
2023-04-15T05:46:24.839Z,101035.00
2023-04-15T05:51:28.050Z,101043.78
2023-04-15T05:56:31.972Z,101035.81
2023-04-15T06:01:36.865Z,101041.94
2023-04-15T06:06:40.721Z,101040.09
2023-04-15T06:11:44.038Z,101038.16
2023-04-15T06:16:48.738Z,101037.19
2023-04-15T06:21:52.099Z,101039.63
2023-04-15T06:26:55.405Z,101044.66
2023-04-15T06:32:00.382Z,101048.97
2023-04-15T06:37:05.749Z,101049.59
2023-04-15T06:42:10.100Z,101049.53
2023-04-15T06:47:15.523Z,101056.91
2023-04-15T06:52:19.151Z,101051.81
2023-04-15T06:57:22.313Z,101042.28
2023-04-15T07:02:27.523Z,101045.97
2023-04-15T07:07:30.880Z,101042.47
2023-04-15T07:12:34.160Z,101046.06
2023-04-15T07:17:38.843Z,101046.75
2023-04-15T07:22:42.518Z,101049.34
2023-04-15T07:27:45.876Z,101052.25
2023-04-15T07:32:50.948Z,101050.97
2023-04-15T07:37:54.288Z,101035.69
2023-04-15T07:42:58.544Z,101025.91
2023-04-15T07:48:03.501Z,101013.38
2023-04-15T07:53:07.414Z,101022.13
2023-04-15T07:58:10.682Z,101020.41
2023-04-15T08:03:15.824Z,101013.94
2023-04-15T08:08:19.225Z,101022.59
2023-04-15T08:13:22.465Z,101010.75
2023-04-15T08:18:27.091Z,101010.75
2023-04-15T08:23:30.322Z,101017.03
2023-04-15T08:28:33.677Z,101017.31
2023-04-15T08:33:38.306Z,101015.16
2023-04-15T08:38:41.560Z,101015.09
2023-04-15T08:43:50.721Z,101014.34
2023-04-15T08:48:59.139Z,101003.44
2023-04-15T08:54:03.391Z,101006.72
2023-04-15T08:59:07.207Z,101014.09
2023-04-15T09:04:12.961Z,101000.34
2023-04-15T09:09:16.498Z,101004.44
2023-04-15T09:14:19.768Z,100999.13
2023-04-15T09:19:25.209Z,101002.97
2023-04-15T09:24:38.919Z,101001.34
2023-04-15T09:29:43.190Z,100971.69
2023-04-15T09:34:48.361Z,100992.91
2023-04-15T09:39:53.865Z,101013.38
2023-04-15T09:44:57.011Z,100999.41
2023-04-15T09:50:02.513Z,100989.41
2023-04-15T09:55:08.375Z,100999.28
2023-04-15T10:00:14.167Z,100998.13
2023-04-15T10:05:19.631Z,100999.69
2023-04-15T10:10:23.253Z,100994.63
2023-04-15T10:15:28.273Z,101000.97
2023-04-15T10:20:33.149Z,100989.19
2023-04-15T10:25:36.642Z,100997.19
2023-04-15T10:30:40.588Z,100992.75
2023-04-15T10:35:46.503Z,100975.22
2023-04-15T10:40:51.791Z,101000.78
2023-04-15T10:45:55.153Z,100990.50
2023-04-15T10:51:02.282Z,100995.47
2023-04-15T10:56:06.716Z,100994.50
2023-04-15T11:01:10.114Z,100995.34
2023-04-15T11:06:15.073Z,100989.53
2023-04-15T11:11:18.402Z,100976.09
2023-04-15T11:16:21.821Z,100974.09
2023-04-15T11:21:28.317Z,100976.09
2023-04-15T11:26:32.324Z,100981.13
2023-04-15T11:31:35.978Z,100973.53
2023-04-15T11:36:40.516Z,100975.53
2023-04-15T11:41:44.343Z,100962.56
2023-04-15T11:46:47.548Z,100956.78
2023-04-15T11:51:52.274Z,100972.41
2023-04-15T11:56:56.733Z,100949.88
2023-04-15T12:02:00.504Z,100953.25
2023-04-15T12:07:07.805Z,100945.84
2023-04-15T12:12:12.508Z,100945.72
2023-04-15T12:17:16.780Z,100946.34
2023-04-15T12:22:22.368Z,100945.03
2023-04-15T12:27:29.785Z,100947.22
2023-04-15T12:32:37.266Z,100957.13
2023-04-15T12:37:42.078Z,100948.88
2023-04-15T12:42:45.387Z,100944.84
2023-04-15T12:47:48.637Z,100940.59
2023-04-15T12:52:53.399Z,100937.97
2023-04-15T12:57:56.906Z,100942.31
2023-04-15T13:03:00.599Z,100938.13
2023-04-15T13:08:05.573Z,100938.75
2023-04-15T13:13:08.745Z,100929.81
2023-04-15T13:18:12.021Z,100930.38
2023-04-15T13:23:16.714Z,100932.38
2023-04-15T13:28:20.080Z,100927.66
2023-04-15T13:33:23.405Z,100938.72
2023-04-15T13:38:28.272Z,100928.16
2023-04-15T13:43:33.832Z,100933.91
2023-04-15T13:48:37.238Z,100937.22
2023-04-15T13:53:41.795Z,100931.25
2023-04-15T13:58:45.149Z,100930.88
2023-04-15T14:03:48.645Z,100926.31
2023-04-15T14:08:53.611Z,100934.19
2023-04-15T14:13:56.777Z,100932.59
2023-04-15T14:19:00.552Z,100931.88
2023-04-15T14:24:05.606Z,100926.81
2023-04-15T14:29:09.272Z,100931.88
2023-04-15T14:34:12.713Z,100918.88
2023-04-15T14:39:17.713Z,100935.09
2023-04-15T14:44:21.124Z,100927.03
2023-04-15T14:49:24.683Z,100932.16
2023-04-15T14:54:29.531Z,100935.88
2023-04-15T14:59:33.364Z,100926.88
2023-04-15T15:04:40.830Z,100921.19
2023-04-15T15:09:45.782Z,100925.16
2023-04-15T15:14:49.131Z,100921.88
2023-04-15T15:19:52.511Z,100921.94
2023-04-15T15:24:59.391Z,100923.00
2023-04-15T15:30:02.948Z,100925.16
2023-04-15T15:35:07.711Z,100928.00
2023-04-15T15:40:13.718Z,100929.56
2023-04-15T15:45:17.514Z,100916.72
2023-04-15T15:50:22.167Z,100918.47
2023-04-15T15:55:27.380Z,100929.94
2023-04-15T16:00:30.765Z,100928.03
2023-04-15T16:05:34.275Z,100940.22
2023-04-15T16:10:39.368Z,100935.50
2023-04-15T16:15:43.829Z,100936.03
2023-04-15T16:20:47.240Z,100944.47
2023-04-15T16:25:52.185Z,100942.28
2023-04-15T16:30:56.376Z,100941.75
2023-04-15T16:35:59.725Z,100939.44
2023-04-15T16:41:04.695Z,100954.63
2023-04-15T16:46:08.058Z,100921.41
2023-04-15T16:51:11.519Z,100952.22
2023-04-15T16:56:16.897Z,100959.34
2023-04-15T17:01:21.514Z,100956.72
2023-04-15T17:06:24.924Z,100962.03
2023-04-15T17:11:31.467Z,100962.00
2023-04-15T17:16:34.751Z,100972.53
2023-04-15T17:21:38.411Z,100973.38
2023-04-15T17:26:44.230Z,100979.44
2023-04-15T17:31:49.965Z,100966.16
2023-04-15T17:37:13.094Z,100989.78
2023-04-15T17:42:37.757Z,100995.78
2023-04-15T17:48:03.576Z,101000.00
2023-04-15T17:53:27.125Z,100999.84
2023-04-15T17:58:53.216Z,100998.00
2023-04-15T18:04:16.674Z,100997.97
2023-04-15T18:09:39.696Z,100998.72
2023-04-15T18:15:05.907Z,101000.41
2023-04-15T18:20:29.282Z,100994.19
2023-04-15T18:25:34.312Z,101002.03
2023-04-15T18:30:39.062Z,100990.59
2023-04-15T18:35:43.110Z,101000.19
2023-04-15T18:40:46.510Z,101009.78
2023-04-15T18:45:54.745Z,101006.28
2023-04-15T18:50:58.619Z,101002.78
2023-04-15T18:56:03.088Z,101009.72
2023-04-15T19:01:10.064Z,101020.16
2023-04-15T19:06:17.259Z,101019.19
2023-04-15T19:11:21.875Z,101021.75
2023-04-15T19:16:26.648Z,101014.69
2023-04-15T19:21:33.309Z,101023.47
2023-04-15T19:26:38.071Z,101032.97
2023-04-15T19:31:43.114Z,101023.16
2023-04-15T19:36:46.670Z,101026.47
2023-04-15T19:41:50.189Z,101036.00
2023-04-15T19:46:55.644Z,101041.22
2023-04-15T19:51:59.228Z,101052.50
2023-04-15T19:57:02.724Z,101048.84
2023-04-15T20:02:08.477Z,101040.22
2023-04-15T20:07:11.873Z,101052.63
2023-04-15T20:12:50.362Z,101054.47
2023-04-15T20:17:39.839Z,101057.31
2023-04-15T20:22:43.445Z,101067.00
2023-04-15T20:27:46.889Z,101061.75
2023-04-15T20:32:51.797Z,101058.22
2023-04-15T20:37:55.623Z,101062.50
2023-04-15T20:42:58.823Z,101066.75
2023-04-15T20:48:03.697Z,101058.91
2023-04-15T20:53:07.185Z,101059.03
2023-04-15T20:58:10.548Z,101070.38
2023-04-15T21:03:15.663Z,101071.81
2023-04-15T21:08:19.112Z,101093.63
2023-04-15T21:13:22.353Z,101095.22
2023-04-15T21:18:27.078Z,101096.84
2023-04-15T21:23:31.426Z,101088.84
2023-04-15T21:28:34.902Z,101098.38
2023-04-15T21:33:39.633Z,101103.44
2023-04-15T21:38:43.072Z,101112.13
2023-04-15T21:43:46.373Z,101118.34
2023-04-15T21:48:51.104Z,101115.75
2023-04-15T21:53:54.263Z,101118.22
2023-04-15T21:58:58.784Z,101116.13
2023-04-15T22:04:03.658Z,101123.84
2023-04-15T22:09:07.046Z,101124.50
2023-04-15T22:14:10.624Z,101124.34
2023-04-15T22:19:15.150Z,101129.38
2023-04-15T22:24:39.275Z,101130.91
2023-04-15T22:29:42.010Z,101133.25
2023-04-15T22:34:46.782Z,101134.88
2023-04-15T22:39:50.183Z,101143.44
2023-04-15T22:44:53.743Z,101142.44
2023-04-15T22:49:58.499Z,101144.19
2023-04-15T22:55:02.069Z,101122.94
2023-04-15T23:00:08.857Z,101152.81
2023-04-15T23:05:13.661Z,101149.19
2023-04-15T23:10:17.288Z,101162.06
2023-04-15T23:15:20.624Z,101164.59
2023-04-15T23:20:25.619Z,101169.78
2023-04-15T23:25:29.125Z,101171.53
2023-04-15T23:30:32.717Z,101168.94
2023-04-15T23:35:37.963Z,101175.16
2023-04-15T23:40:41.192Z,101177.00
2023-04-15T23:45:44.461Z,101187.75
2023-04-15T23:50:49.239Z,101189.63
2023-04-15T23:55:52.646Z,101180.00
